createdAt,value
2017-06-17T00:00:01.248Z,90.00
2017-06-17T00:02:28.685Z,89.90
2017-06-17T00:04:56.147Z,89.80
2017-06-17T00:07:24.228Z,90.50
2017-06-17T00:09:51.674Z,90.50
2017-06-17T00:12:19.148Z,89.70
2017-06-17T00:14:46.591Z,89.70
2017-06-17T00:17:14.035Z,90.70
2017-06-17T00:19:41.727Z,90.20
2017-06-17T00:22:09.168Z,90.20
2017-06-17T00:24:36.620Z,91.30
2017-06-17T00:27:04.099Z,91.10
2017-06-17T00:29:31.539Z,90.60
2017-06-17T00:31:58.979Z,90.10
2017-06-17T00:34:26.655Z,90.40
2017-06-17T00:36:54.095Z,90.40
2017-06-17T00:39:21.543Z,90.30
2017-06-17T00:41:49.003Z,89.90
2017-06-17T00:44:16.444Z,89.90
2017-06-17T00:46:43.883Z,89.70
2017-06-17T00:49:11.447Z,89.50
2017-06-17T00:51:38.887Z,90.90
2017-06-17T00:54:06.336Z,90.50
2017-06-17T00:56:34.208Z,89.50
2017-06-17T00:59:01.644Z,89.50
2017-06-17T01:01:29.079Z,90.40
2017-06-17T01:03:56.557Z,90.40
2017-06-17T01:06:24.388Z,90.20
2017-06-17T01:08:51.831Z,90.20
2017-06-17T01:11:19.303Z,90.00
2017-06-17T01:13:46.740Z,89.60
2017-06-17T01:16:14.179Z,89.90
2017-06-17T01:18:41.651Z,90.00
2017-06-17T01:21:09.087Z,90.20
2017-06-17T01:23:36.528Z,90.20
2017-06-17T01:26:04.000Z,90.30
2017-06-17T01:28:31.439Z,90.50
2017-06-17T01:30:59.320Z,90.30
2017-06-17T01:33:27.042Z,90.40
2017-06-17T01:35:54.459Z,90.40
2017-06-17T01:38:21.905Z,90.50
2017-06-17T01:40:49.460Z,90.60
2017-06-17T01:43:16.907Z,90.30
2017-06-17T01:45:44.343Z,90.70
2017-06-17T01:48:12.048Z,90.50
2017-06-17T01:50:39.504Z,90.50
2017-06-17T01:53:06.944Z,90.40
2017-06-17T01:55:34.420Z,90.40
2017-06-17T01:58:01.856Z,91.00
2017-06-17T02:00:29.299Z,91.00
2017-06-17T02:02:56.768Z,90.70
2017-06-17T02:05:24.207Z,90.40
2017-06-17T02:07:51.648Z,90.30
2017-06-17T02:10:19.191Z,90.20
2017-06-17T02:12:46.677Z,90.20
2017-06-17T02:15:14.095Z,90.60
2017-06-17T02:17:41.564Z,91.00
2017-06-17T02:20:09.013Z,90.80
2017-06-17T02:22:36.847Z,90.50
2017-06-17T02:25:04.307Z,90.50
2017-06-17T02:27:31.760Z,90.40
2017-06-17T02:29:59.203Z,90.80
2017-06-17T02:32:26.763Z,90.90
2017-06-17T02:34:54.204Z,91.20
2017-06-17T02:37:21.647Z,91.30
2017-06-17T02:39:49.279Z,91.00
2017-06-17T02:42:16.715Z,91.10
2017-06-17T02:44:44.152Z,90.80
2017-06-17T02:47:11.603Z,90.70
2017-06-17T02:49:39.060Z,91.00
2017-06-17T02:52:06.496Z,91.30
2017-06-17T02:54:33.971Z,91.10
2017-06-17T02:57:01.688Z,90.90
2017-06-17T02:59:29.129Z,91.60
2017-06-17T03:01:56.750Z,91.00
2017-06-17T03:04:24.182Z,90.90
2017-06-17T03:06:51.623Z,91.00
2017-06-17T03:09:19.079Z,91.20
2017-06-17T03:11:46.519Z,91.00
2017-06-17T03:14:13.960Z,91.00
2017-06-17T03:16:41.428Z,91.10
2017-06-17T03:19:08.872Z,91.80
2017-06-17T03:21:36.311Z,91.30
2017-06-17T03:24:03.963Z,91.20
2017-06-17T03:26:31.404Z,91.00
2017-06-17T03:28:58.834Z,90.90
2017-06-17T03:31:26.395Z,90.60
2017-06-17T03:33:53.830Z,90.60
2017-06-17T03:36:21.270Z,90.70
2017-06-17T03:38:48.999Z,90.40
2017-06-17T03:41:16.440Z,90.50
2017-06-17T03:43:43.876Z,90.60
2017-06-17T03:46:11.329Z,90.70
2017-06-17T03:48:38.767Z,90.70
2017-06-17T03:51:06.204Z,90.40
2017-06-17T03:53:33.909Z,90.30
2017-06-17T03:56:01.347Z,90.60
2017-06-17T03:58:28.783Z,90.30
2017-06-17T04:00:56.257Z,90.30
2017-06-17T04:03:23.696Z,90.50
2017-06-17T04:05:51.148Z,90.60
2017-06-17T04:08:18.716Z,90.70
2017-06-17T04:10:46.156Z,90.60
2017-06-17T04:13:13.595Z,90.20
2017-06-17T04:15:41.066Z,90.30
2017-06-17T04:18:08.516Z,89.80
2017-06-17T04:20:35.955Z,90.70
2017-06-17T04:23:03.836Z,90.20
2017-06-17T04:25:31.275Z,89.90
2017-06-17T04:27:58.715Z,90.30
2017-06-17T04:30:26.171Z,90.20
2017-06-17T04:32:53.612Z,89.80
2017-06-17T04:35:21.051Z,90.50
2017-06-17T04:37:48.524Z,89.70
2017-06-17T04:40:15.964Z,89.50
2017-06-17T04:42:43.408Z,90.10
2017-06-17T04:45:10.884Z,89.80
2017-06-17T04:47:38.324Z,89.50
2017-06-17T04:50:05.765Z,89.60
2017-06-17T04:52:33.440Z,89.40
2017-06-17T04:55:00.882Z,89.70
2017-06-17T04:57:28.320Z,89.10
2017-06-17T04:59:55.998Z,89.00
2017-06-17T05:02:23.443Z,89.10
2017-06-17T05:04:50.889Z,88.70
2017-06-17T05:07:18.776Z,88.60
2017-06-17T05:09:46.220Z,88.80
2017-06-17T05:12:13.664Z,88.30
2017-06-17T05:14:41.135Z,87.90
2017-06-17T05:17:08.587Z,87.60
2017-06-17T05:19:36.332Z,88.10
2017-06-17T05:22:03.796Z,87.30
2017-06-17T05:24:31.237Z,87.30
2017-06-17T05:26:58.679Z,87.40
2017-06-17T05:29:26.156Z,87.00
2017-06-17T05:31:54.232Z,86.80
2017-06-17T05:34:21.672Z,86.80
2017-06-17T05:36:49.131Z,86.50
2017-06-17T05:39:16.577Z,86.70
2017-06-17T05:41:44.019Z,86.20
2017-06-17T05:44:11.500Z,85.50
2017-06-17T05:46:38.951Z,85.20
2017-06-17T05:49:06.388Z,85.50
2017-06-17T05:51:33.887Z,85.50
2017-06-17T05:54:01.353Z,85.00
2017-06-17T05:56:28.808Z,84.90
2017-06-17T05:58:56.469Z,84.60
2017-06-17T06:01:23.904Z,84.10
2017-06-17T06:03:51.342Z,83.90
2017-06-17T06:06:18.902Z,84.20
2017-06-17T06:08:46.332Z,83.60
2017-06-17T06:11:13.784Z,83.50
2017-06-17T06:13:42.220Z,83.10
2017-06-17T06:16:09.664Z,83.20
2017-06-17T06:18:37.108Z,83.10
2017-06-17T06:21:04.571Z,82.40
2017-06-17T06:23:32.019Z,82.50
2017-06-17T06:25:59.582Z,82.60
2017-06-17T06:28:27.028Z,82.40
2017-06-17T06:30:54.475Z,82.60
2017-06-17T06:33:22.032Z,82.60
2017-06-17T06:35:49.455Z,81.90
2017-06-17T06:38:16.900Z,82.50
2017-06-17T06:40:45.035Z,81.00
2017-06-17T06:43:12.471Z,80.90
2017-06-17T06:45:39.910Z,80.40
2017-06-17T06:48:07.616Z,80.00
2017-06-17T06:50:35.054Z,80.80
2017-06-17T06:53:02.492Z,79.60
2017-06-17T06:55:30.052Z,79.70
2017-06-17T06:57:57.492Z,79.60
2017-06-17T07:00:24.935Z,80.40
2017-06-17T07:02:52.544Z,80.50
2017-06-17T07:05:20.161Z,80.00
2017-06-17T07:07:47.587Z,79.60
2017-06-17T07:10:15.083Z,79.50
2017-06-17T07:12:42.553Z,79.00
2017-06-17T07:15:10.201Z,78.90
2017-06-17T07:17:37.928Z,78.30
2017-06-17T07:20:05.771Z,77.50
2017-06-17T07:22:33.234Z,77.50
2017-06-17T07:25:01.009Z,76.40
2017-06-17T07:27:28.832Z,76.50
2017-06-17T07:29:56.376Z,76.50
2017-06-17T07:32:23.836Z,75.90
2017-06-17T07:34:51.462Z,76.40
2017-06-17T07:37:19.243Z,76.30
2017-06-17T07:39:47.075Z,76.60
2017-06-17T07:42:14.899Z,76.00
2017-06-17T07:44:42.588Z,75.90
2017-06-17T07:47:10.428Z,75.70
2017-06-17T07:49:38.427Z,75.70
2017-06-17T07:52:06.087Z,76.10
2017-06-17T07:54:33.566Z,75.80
2017-06-17T07:57:01.019Z,74.90
2017-06-17T07:59:28.797Z,74.50
2017-06-17T08:01:59.419Z,74.30
2017-06-17T08:04:27.750Z,74.20
2017-06-17T08:06:55.631Z,73.50
2017-06-17T08:09:23.460Z,73.80
2017-06-17T08:11:50.900Z,73.80
2017-06-17T08:14:18.581Z,73.10
2017-06-17T08:16:46.011Z,73.00
2017-06-17T08:19:13.462Z,74.40
2017-06-17T08:21:41.239Z,75.30
2017-06-17T08:24:08.699Z,75.50
2017-06-17T08:26:36.150Z,75.20
2017-06-17T08:29:03.822Z,73.90
2017-06-17T08:31:31.261Z,73.60
2017-06-17T08:33:58.704Z,71.90
2017-06-17T08:36:26.206Z,71.80
2017-06-17T08:38:53.666Z,71.00
2017-06-17T08:41:21.109Z,72.20
2017-06-17T08:43:48.756Z,71.90
2017-06-17T08:46:16.187Z,72.80
2017-06-17T08:48:43.655Z,73.40
2017-06-17T08:51:11.255Z,73.40
2017-06-17T08:53:39.092Z,73.00
2017-06-17T08:56:06.542Z,73.00
2017-06-17T08:58:34.244Z,71.80
2017-06-17T09:01:01.689Z,70.70
2017-06-17T09:03:29.205Z,69.80
2017-06-17T09:05:56.664Z,69.80
2017-06-17T09:08:24.103Z,69.80
2017-06-17T09:10:51.753Z,71.30
2017-06-17T09:13:19.485Z,71.60
2017-06-17T09:15:46.959Z,72.00
2017-06-17T09:18:14.410Z,71.20
2017-06-17T09:20:41.910Z,70.90
2017-06-17T09:23:09.414Z,70.50
2017-06-17T09:25:36.871Z,69.10
2017-06-17T09:28:05.152Z,68.20
2017-06-17T09:30:32.598Z,68.20
2017-06-17T09:33:00.076Z,68.40
2017-06-17T09:35:27.548Z,69.10
2017-06-17T09:37:55.219Z,69.50
2017-06-17T09:40:22.661Z,69.80
2017-06-17T09:42:50.105Z,69.10
2017-06-17T09:45:17.792Z,67.40
2017-06-17T09:47:45.227Z,67.00
2017-06-17T09:50:12.665Z,67.00
2017-06-17T09:52:40.145Z,66.20
2017-06-17T09:55:08.023Z,66.00
2017-06-17T09:57:35.460Z,67.90
2017-06-17T10:00:02.918Z,69.50
2017-06-17T10:02:30.619Z,68.50
2017-06-17T10:04:58.838Z,68.70
2017-06-17T10:07:26.275Z,66.80
2017-06-17T10:09:53.843Z,67.00
2017-06-17T10:12:21.283Z,67.80
2017-06-17T10:14:48.721Z,69.00
2017-06-17T10:17:16.390Z,68.20
2017-06-17T10:19:43.834Z,67.20
2017-06-17T10:22:11.279Z,67.20
2017-06-17T10:24:39.016Z,68.40
2017-06-17T10:27:06.479Z,66.60
2017-06-17T10:29:33.926Z,67.60
2017-06-17T10:32:01.395Z,67.30
2017-06-17T10:34:28.877Z,67.40
2017-06-17T10:36:56.738Z,67.70
2017-06-17T10:39:24.191Z,66.40
2017-06-17T10:41:52.068Z,65.60
2017-06-17T10:44:19.745Z,65.60
2017-06-17T10:46:47.234Z,66.10
2017-06-17T10:49:14.715Z,65.00
2017-06-17T10:51:42.501Z,66.20
2017-06-17T10:54:09.960Z,66.70
2017-06-17T10:56:37.394Z,66.10
2017-06-17T10:59:05.254Z,67.60
2017-06-17T11:01:32.727Z,67.60
2017-06-17T11:04:00.163Z,67.00
2017-06-17T11:06:27.612Z,65.80
2017-06-17T11:08:55.085Z,64.80
2017-06-17T11:11:22.911Z,62.30
2017-06-17T11:13:50.355Z,62.30
2017-06-17T11:16:17.975Z,60.40
2017-06-17T11:18:45.424Z,61.00
2017-06-17T11:21:12.860Z,61.10
2017-06-17T11:23:40.420Z,60.80
2017-06-17T11:26:07.860Z,61.00
2017-06-17T11:28:35.303Z,59.60
2017-06-17T11:31:02.853Z,58.60
2017-06-17T11:33:30.296Z,58.80
2017-06-17T11:35:57.743Z,60.50
2017-06-17T11:38:25.537Z,61.80
2017-06-17T11:40:53.006Z,60.60
2017-06-17T11:43:20.448Z,60.70
2017-06-17T11:45:47.889Z,60.80
2017-06-17T11:48:15.982Z,60.30
2017-06-17T11:50:43.414Z,61.20
2017-06-17T11:53:10.852Z,61.50
2017-06-17T11:55:38.307Z,61.10
2017-06-17T11:58:06.299Z,61.40
2017-06-17T12:00:33.740Z,60.40
2017-06-17T12:03:01.600Z,59.50
2017-06-17T12:05:29.028Z,59.50
2017-06-17T12:07:56.462Z,60.20
2017-06-17T12:10:23.934Z,62.80
2017-06-17T12:12:52.364Z,62.60
2017-06-17T12:15:19.818Z,61.80
2017-06-17T12:17:47.272Z,62.40
2017-06-17T12:20:14.730Z,62.30
2017-06-17T12:22:42.168Z,61.70
2017-06-17T12:25:09.842Z,60.90
2017-06-17T12:27:37.281Z,61.30
2017-06-17T12:30:04.728Z,61.70
2017-06-17T12:32:32.527Z,58.90
2017-06-17T12:35:00.326Z,59.70
2017-06-17T12:37:27.780Z,58.50
2017-06-17T12:39:55.632Z,59.00
2017-06-17T12:42:23.708Z,58.50
2017-06-17T12:44:51.161Z,58.50
2017-06-17T12:47:18.639Z,60.60
2017-06-17T12:49:46.080Z,61.40
2017-06-17T12:52:13.515Z,59.20
2017-06-17T12:54:41.253Z,59.20
2017-06-17T12:57:08.984Z,59.90
2017-06-17T12:59:36.617Z,60.90
2017-06-17T13:02:04.109Z,59.70
2017-06-17T13:04:31.553Z,58.40
2017-06-17T13:06:58.991Z,57.90
2017-06-17T13:09:26.753Z,57.10
2017-06-17T13:11:54.187Z,57.50
2017-06-17T13:14:21.641Z,61.50
2017-06-17T13:16:49.210Z,60.90
2017-06-17T13:19:16.671Z,59.10
2017-06-17T13:21:44.144Z,57.10
2017-06-17T13:24:11.718Z,57.70
2017-06-17T13:26:39.675Z,57.90
2017-06-17T13:29:07.143Z,57.10
2017-06-17T13:31:34.601Z,58.30
2017-06-17T13:34:02.047Z,56.90
2017-06-17T13:36:29.666Z,56.70
2017-06-17T13:38:58.120Z,59.30
2017-06-17T13:41:25.564Z,59.40
2017-06-17T13:43:53.234Z,59.90
2017-06-17T13:46:20.690Z,60.30
2017-06-17T13:48:48.150Z,60.10
2017-06-17T13:51:16.124Z,60.40
2017-06-17T13:53:43.581Z,59.60
2017-06-17T13:56:11.016Z,58.70
2017-06-17T13:58:38.486Z,57.30
2017-06-17T14:01:05.942Z,57.10
2017-06-17T14:03:33.381Z,59.20
2017-06-17T14:06:00.852Z,59.60
2017-06-17T14:08:28.700Z,60.10
2017-06-17T14:10:56.672Z,60.10
2017-06-17T14:13:24.126Z,60.60
2017-06-17T14:15:51.798Z,61.60
2017-06-17T14:18:19.256Z,61.30
2017-06-17T14:21:02.488Z,59.30
2017-06-17T14:23:30.157Z,59.00
2017-06-17T14:25:57.590Z,61.10
2017-06-17T14:28:25.300Z,61.20
2017-06-17T14:30:52.755Z,61.10
2017-06-17T14:33:20.191Z,60.00
2017-06-17T14:35:47.914Z,59.70
2017-06-17T14:38:15.351Z,60.10
2017-06-17T14:40:42.814Z,58.50
2017-06-17T14:43:10.530Z,58.90
2017-06-17T14:45:37.991Z,60.30
2017-06-17T14:48:05.440Z,60.50
2017-06-17T14:50:32.979Z,60.70
2017-06-17T14:53:00.439Z,61.30
2017-06-17T14:55:27.947Z,62.00
2017-06-17T14:57:55.612Z,63.90
2017-06-17T15:00:23.074Z,63.40
2017-06-17T15:02:50.503Z,63.50
2017-06-17T15:05:18.176Z,64.50
2017-06-17T15:07:45.613Z,66.00
2017-06-17T15:10:13.069Z,66.00
2017-06-17T15:12:40.629Z,66.50
2017-06-17T15:15:08.212Z,66.70
2017-06-17T15:17:36.379Z,66.90
2017-06-17T15:20:03.821Z,66.90
2017-06-17T15:22:31.281Z,67.20
2017-06-17T15:24:58.764Z,67.70
2017-06-17T15:27:26.216Z,68.00
2017-06-17T15:29:54.568Z,68.00
2017-06-17T15:32:22.071Z,68.90
2017-06-17T15:34:50.214Z,69.30
2017-06-17T15:37:17.655Z,69.30
2017-06-17T15:39:45.114Z,68.90
2017-06-17T15:42:12.834Z,69.20
2017-06-17T15:44:40.919Z,69.10
2017-06-17T15:47:08.717Z,69.50
2017-06-17T15:49:36.171Z,69.20
2017-06-17T15:52:03.637Z,69.20
2017-06-17T15:54:31.075Z,68.80
2017-06-17T15:56:58.527Z,69.00
2017-06-17T15:59:25.998Z,69.40
2017-06-17T16:01:53.435Z,68.20
2017-06-17T16:04:20.883Z,68.70
2017-06-17T16:06:48.368Z,70.10
2017-06-17T16:09:15.818Z,71.70
2017-06-17T16:11:43.271Z,73.00
2017-06-17T16:14:10.740Z,71.70
2017-06-17T16:16:38.602Z,71.40
2017-06-17T16:19:06.046Z,71.40
2017-06-17T16:21:33.767Z,71.60
2017-06-17T16:24:01.202Z,72.30
2017-06-17T16:26:28.639Z,72.00
2017-06-17T16:28:56.492Z,72.60
2017-06-17T16:31:23.927Z,72.50
2017-06-17T16:33:51.382Z,72.90
2017-06-17T16:36:18.883Z,73.10
2017-06-17T16:38:46.342Z,73.50
2017-06-17T16:41:13.795Z,74.40
2017-06-17T16:43:41.268Z,75.00
2017-06-17T16:46:08.704Z,75.50
2017-06-17T16:48:36.159Z,75.70
2017-06-17T16:51:03.631Z,75.60
2017-06-17T16:53:31.084Z,75.80
2017-06-17T16:55:58.540Z,76.10
2017-06-17T16:58:26.018Z,76.20
2017-06-17T17:00:53.474Z,76.40
2017-06-17T17:03:20.930Z,76.80
2017-06-17T17:05:48.712Z,77.60
2017-06-17T17:08:16.143Z,78.60
2017-06-17T17:10:43.591Z,79.20
2017-06-17T17:13:11.296Z,79.10
2017-06-17T17:15:38.730Z,79.30
2017-06-17T17:18:06.178Z,79.00
2017-06-17T17:20:33.635Z,78.80
2017-06-17T17:23:01.074Z,78.90
2017-06-17T17:25:28.742Z,79.10
2017-06-17T17:27:56.222Z,79.30
2017-06-17T17:30:23.655Z,78.90
2017-06-17T17:32:51.095Z,79.70
2017-06-17T17:35:18.591Z,79.30
2017-06-17T17:37:46.036Z,79.20
2017-06-17T17:40:13.486Z,79.60
2017-06-17T17:42:41.427Z,80.50
2017-06-17T17:45:08.904Z,80.80
2017-06-17T17:47:36.370Z,80.80
2017-06-17T17:50:04.044Z,81.30
2017-06-17T17:52:31.722Z,80.90
2017-06-17T17:54:59.168Z,81.20
2017-06-17T17:57:27.263Z,80.90
2017-06-17T17:59:55.125Z,81.80
2017-06-17T18:02:22.591Z,81.80
2017-06-17T18:04:50.063Z,81.40
2017-06-17T18:07:17.508Z,82.10
2017-06-17T18:09:44.973Z,82.50
2017-06-17T18:12:13.160Z,82.80
2017-06-17T18:14:40.594Z,82.50
2017-06-17T18:17:08.047Z,82.80
2017-06-17T18:19:35.535Z,83.30
2017-06-17T18:22:02.982Z,83.00
2017-06-17T18:24:30.778Z,82.90
2017-06-17T18:27:07.887Z,83.10
2017-06-17T18:29:35.354Z,82.80
2017-06-17T18:32:03.034Z,82.90
2017-06-17T18:34:30.981Z,82.90
2017-06-17T18:36:59.278Z,83.10
2017-06-17T18:39:27.070Z,83.30
2017-06-17T18:41:54.519Z,83.20
2017-06-17T18:44:21.955Z,82.90
2017-06-17T18:46:49.530Z,83.20
2017-06-17T18:49:16.987Z,83.40
2017-06-17T18:51:44.805Z,84.00
2017-06-17T18:54:12.511Z,84.00
2017-06-17T18:56:39.967Z,83.80
2017-06-17T18:59:07.404Z,83.70
2017-06-17T19:01:35.111Z,84.60
2017-06-17T19:04:02.572Z,84.60
2017-06-17T19:06:30.024Z,84.20
2017-06-17T19:08:57.492Z,83.90
2017-06-17T19:11:24.927Z,83.80
2017-06-17T19:13:52.386Z,83.10
2017-06-17T19:16:20.035Z,83.50
2017-06-17T19:18:47.872Z,83.90
2017-06-17T19:21:15.334Z,83.90
2017-06-17T19:23:42.811Z,84.30
2017-06-17T19:26:10.658Z,84.50
2017-06-17T19:28:38.111Z,84.50
2017-06-17T19:31:05.590Z,84.90
2017-06-17T19:33:33.291Z,85.30
2017-06-17T19:36:00.727Z,85.30
2017-06-17T19:38:28.218Z,85.70
2017-06-17T19:40:55.673Z,86.00
2017-06-17T19:43:23.112Z,86.10
2017-06-17T19:45:50.988Z,86.40
2017-06-17T19:48:19.097Z,86.70
2017-06-17T19:50:46.987Z,87.40
2017-06-17T19:53:14.477Z,87.40
2017-06-17T19:55:41.923Z,87.40
2017-06-17T19:58:09.386Z,87.30
2017-06-17T20:00:36.967Z,87.70
2017-06-17T20:03:04.446Z,87.80
2017-06-17T20:05:32.299Z,88.50
2017-06-17T20:07:59.762Z,88.50
2017-06-17T20:10:27.610Z,88.20
2017-06-17T20:12:55.066Z,88.20
2017-06-17T20:15:22.694Z,88.40
2017-06-17T20:17:50.155Z,88.70
2017-06-17T20:20:17.599Z,89.10
2017-06-17T20:22:46.848Z,89.20
2017-06-17T20:25:14.309Z,89.20
2017-06-17T20:27:41.816Z,90.40
2017-06-17T20:30:09.292Z,90.20
2017-06-17T20:32:36.756Z,90.40
2017-06-17T20:35:04.225Z,90.50
2017-06-17T20:37:32.650Z,90.70
2017-06-17T20:40:00.408Z,91.20
2017-06-17T20:42:28.899Z,91.40
2017-06-17T20:44:56.753Z,92.20
2017-06-17T20:47:24.192Z,92.00
2017-06-17T20:49:51.660Z,91.70
2017-06-17T20:52:19.413Z,91.20
2017-06-17T20:54:46.874Z,91.00
2017-06-17T20:57:14.334Z,91.50
2017-06-17T20:59:42.052Z,91.10
2017-06-17T21:02:09.936Z,90.90
2017-06-17T21:04:37.431Z,90.90
2017-06-17T21:07:05.119Z,91.40
2017-06-17T21:09:32.568Z,91.40
2017-06-17T21:12:00.012Z,91.40
2017-06-17T21:14:27.479Z,91.20
2017-06-17T21:16:54.920Z,91.10
2017-06-17T21:19:22.372Z,91.70
2017-06-17T21:21:49.998Z,91.80
2017-06-17T21:24:17.459Z,90.90
2017-06-17T21:26:44.896Z,91.30
2017-06-17T21:29:12.582Z,91.10
2017-06-17T21:31:41.048Z,90.80
2017-06-17T21:34:08.503Z,90.90
2017-06-17T21:36:35.980Z,91.00
2017-06-17T21:39:03.798Z,90.40
2017-06-17T21:41:31.230Z,90.60
2017-06-17T21:43:58.878Z,90.20
2017-06-17T21:46:26.325Z,90.10
2017-06-17T21:48:54.289Z,90.00
2017-06-17T21:51:22.195Z,90.50
2017-06-17T21:53:49.619Z,90.00
2017-06-17T21:56:17.068Z,89.90
2017-06-17T21:58:44.624Z,90.20
2017-06-17T22:01:12.984Z,90.00
2017-06-17T22:03:40.451Z,90.30
2017-06-17T22:06:07.915Z,90.30
2017-06-17T22:08:35.378Z,90.00
2017-06-17T22:11:02.816Z,90.00
2017-06-17T22:13:30.307Z,89.80
2017-06-17T22:15:57.762Z,90.30
2017-06-17T22:18:25.603Z,90.30
2017-06-17T22:20:53.259Z,90.20
2017-06-17T22:23:20.709Z,90.20
2017-06-17T22:25:48.154Z,90.20
2017-06-17T22:28:15.803Z,89.80
2017-06-17T22:30:43.491Z,90.00
2017-06-17T22:33:10.935Z,90.40
2017-06-17T22:35:38.379Z,90.60
2017-06-17T22:38:05.862Z,90.40
2017-06-17T22:40:33.331Z,90.30
2017-06-17T22:43:00.975Z,90.10
2017-06-17T22:45:28.460Z,90.20
2017-06-17T22:47:56.303Z,90.60
2017-06-17T22:50:23.748Z,90.60
2017-06-17T22:52:51.221Z,91.20
2017-06-17T22:55:18.666Z,90.30
2017-06-17T22:57:46.112Z,90.00
2017-06-17T23:00:13.851Z,90.40
2017-06-17T23:02:41.295Z,90.60
2017-06-17T23:05:08.995Z,90.50
2017-06-17T23:07:37.055Z,90.10
2017-06-17T23:10:04.508Z,90.00
2017-06-17T23:12:31.956Z,90.00
2017-06-17T23:14:59.517Z,89.80
2017-06-17T23:17:26.955Z,90.00
2017-06-17T23:19:54.398Z,90.30
2017-06-17T23:22:22.147Z,89.90
2017-06-17T23:24:49.597Z,89.70
2017-06-17T23:27:17.050Z,89.80
2017-06-17T23:29:44.538Z,89.60
2017-06-17T23:32:11.978Z,89.60
2017-06-17T23:34:39.419Z,88.90
2017-06-17T23:37:06.971Z,89.60
2017-06-17T23:39:34.416Z,90.20
2017-06-17T23:42:02.275Z,90.00
2017-06-17T23:44:30.010Z,90.00
2017-06-17T23:46:57.442Z,89.60
2017-06-17T23:49:24.889Z,89.50
2017-06-17T23:51:52.381Z,89.60
2017-06-17T23:54:19.819Z,89.70
2017-06-17T23:56:47.275Z,89.80
2017-06-17T23:59:14.735Z,91.50
